sensor_id;sensor_type;location;lat;lon;timestamp;pressure;altitude;pressure_sealevel;temperature;humidity
55077;BME280;40971;44.702;11.030;2022-09-17T00:01:34;99999.69;;;18.52;100.00
55077;BME280;40971;44.702;11.030;2022-09-17T00:04:00;99995.28;;;18.43;100.00
55077;BME280;40971;44.702;11.030;2022-09-17T00:06:28;99983.56;;;18.28;100.00
55077;BME280;40971;44.702;11.030;2022-09-17T00:08:54;100001.50;;;18.34;100.00
55077;BME280;40971;44.702;11.030;2022-09-17T00:11:21;100030.34;;;18.45;100.00
55077;BME280;40971;44.702;11.030;2022-09-17T00:13:48;100024.06;;;18.46;100.00
55077;BME280;40971;44.702;11.030;2022-09-17T00:16:31;100014.94;;;18.41;100.00
55077;BME280;40971;44.702;11.030;2022-09-17T00:18:58;99960.53;;;18.02;100.00
55077;BME280;40971;44.702;11.030;2022-09-17T00:21:24;100017.09;;;18.27;100.00
55077;BME280;40971;44.702;11.030;2022-09-17T00:23:59;100015.84;;;18.31;100.00
55077;BME280;40971;44.702;11.030;2022-09-17T00:26:26;99966.94;;;18.00;100.00
55077;BME280;40971;44.702;11.030;2022-09-17T00:28:53;100005.47;;;18.20;100.00
55077;BME280;40971;44.702;11.030;2022-09-17T00:31:20;100002.06;;;18.28;100.00
55077;BME280;40971;44.702;11.030;2022-09-17T00:33:46;99988.25;;;18.16;100.00
55077;BME280;40971;44.702;11.030;2022-09-17T00:36:12;99971.41;;;17.99;100.00
55077;BME280;40971;44.702;11.030;2022-09-17T00:38:37;99955.75;;;17.88;100.00
55077;BME280;40971;44.702;11.030;2022-09-17T00:41:04;99995.09;;;18.09;100.00
55077;BME280;40971;44.702;11.030;2022-09-17T00:43:34;100000.09;;;18.12;100.00
55077;BME280;40971;44.702;11.030;2022-09-17T00:46:01;99998.34;;;18.03;100.00
55077;BME280;40971;44.702;11.030;2022-09-17T00:48:27;99999.81;;;17.88;100.00
55077;BME280;40971;44.702;11.030;2022-09-17T00:50:53;100003.75;;;17.84;100.00
55077;BME280;40971;44.702;11.030;2022-09-17T00:53:21;99960.94;;;17.43;100.00
55077;BME280;40971;44.702;11.030;2022-09-17T00:55:56;100023.47;;;17.80;100.00
55077;BME280;40971;44.702;11.030;2022-09-17T00:58:23;100016.84;;;17.66;100.00
55077;BME280;40971;44.702;11.030;2022-09-17T01:00:49;100045.75;;;17.77;100.00
55077;BME280;40971;44.702;11.030;2022-09-17T01:03:15;100037.81;;;17.77;100.00
55077;BME280;40971;44.702;11.030;2022-09-17T01:05:57;100038.75;;;17.86;100.00
55077;BME280;40971;44.702;11.030;2022-09-17T01:31:24;100024.94;;;17.55;100.00
55077;BME280;40971;44.702;11.030;2022-09-17T01:42:25;100027.75;;;17.43;100.00
55077;BME280;40971;44.702;11.030;2022-09-17T01:45:07;99988.66;;;17.20;100.00
55077;BME280;40971;44.702;11.030;2022-09-17T01:47:46;100029.56;;;17.43;100.00
55077;BME280;40971;44.702;11.030;2022-09-17T01:50:24;100015.56;;;17.33;100.00
55077;BME280;40971;44.702;11.030;2022-09-17T01:52:55;100014.47;;;17.35;100.00
55077;BME280;40971;44.702;11.030;2022-09-17T01:55:26;100020.28;;;17.29;100.00
55077;BME280;40971;44.702;11.030;2022-09-17T01:57:57;100023.50;;;17.33;100.00
55077;BME280;40971;44.702;11.030;2022-09-17T02:00:25;100007.97;;;17.20;100.00
55077;BME280;40971;44.702;11.030;2022-09-17T02:02:59;99968.28;;;16.93;100.00
55077;BME280;40971;44.702;11.030;2022-09-17T02:05:34;100036.94;;;17.30;100.00
55077;BME280;40971;44.702;11.030;2022-09-17T02:08:07;100009.22;;;17.06;100.00
55077;BME280;40971;44.702;11.030;2022-09-17T02:10:36;99977.88;;;16.94;100.00
55077;BME280;40971;44.702;11.030;2022-09-17T02:13:11;100021.59;;;17.16;100.00
55077;BME280;40971;44.702;11.030;2022-09-17T02:15:46;100042.94;;;17.32;100.00
55077;BME280;40971;44.702;11.030;2022-09-17T02:18:27;100050.56;;;17.35;100.00
55077;BME280;40971;44.702;11.030;2022-09-17T02:23:35;100043.78;;;17.32;100.00
55077;BME280;40971;44.702;11.030;2022-09-17T02:26:06;100047.41;;;17.31;100.00
55077;BME280;40971;44.702;11.030;2022-09-17T02:31:06;100012.25;;;17.21;100.00
55077;BME280;40971;44.702;11.030;2022-09-17T02:33:33;100015.72;;;17.31;100.00
55077;BME280;40971;44.702;11.030;2022-09-17T02:36:00;99998.38;;;17.19;100.00
55077;BME280;40971;44.702;11.030;2022-09-17T02:38:28;100023.09;;;17.18;100.00
55077;BME280;40971;44.702;11.030;2022-09-17T02:41:03;99934.03;;;16.64;100.00
55077;BME280;40971;44.702;11.030;2022-09-17T02:43:37;99975.50;;;17.00;100.00
55077;BME280;40971;44.702;11.030;2022-09-17T02:55:30;99966.81;;;17.27;100.00
55077;BME280;40971;44.702;11.030;2022-09-17T02:57:43;99976.00;;;17.33;100.00
55077;BME280;40971;44.702;11.030;2022-09-17T03:00:19;99957.53;;;17.23;100.00
55077;BME280;40971;44.702;11.030;2022-09-17T03:02:49;99959.72;;;17.28;100.00
55077;BME280;40971;44.702;11.030;2022-09-17T03:05:20;99968.91;;;17.24;100.00
55077;BME280;40971;44.702;11.030;2022-09-17T03:07:46;99890.44;;;16.79;100.00
55077;BME280;40971;44.702;11.030;2022-09-17T03:10:12;99944.25;;;17.05;100.00
55077;BME280;40971;44.702;11.030;2022-09-17T03:12:38;99953.97;;;17.14;100.00
55077;BME280;40971;44.702;11.030;2022-09-17T03:15:04;99960.84;;;17.25;100.00
55077;BME280;40971;44.702;11.030;2022-09-17T03:17:30;99955.03;;;17.22;100.00
55077;BME280;40971;44.702;11.030;2022-09-17T03:19:55;99903.63;;;16.89;100.00
55077;BME280;40971;44.702;11.030;2022-09-17T03:22:21;99916.53;;;16.92;100.00
55077;BME280;40971;44.702;11.030;2022-09-17T03:24:46;99919.84;;;16.94;100.00
55077;BME280;40971;44.702;11.030;2022-09-17T03:27:11;99943.44;;;17.05;100.00
55077;BME280;40971;44.702;11.030;2022-09-17T03:29:37;99949.09;;;17.10;100.00
55077;BME280;40971;44.702;11.030;2022-09-17T03:32:03;99965.88;;;17.19;100.00
55077;BME280;40971;44.702;11.030;2022-09-17T03:34:28;99957.28;;;17.17;100.00
55077;BME280;40971;44.702;11.030;2022-09-17T03:36:54;99970.47;;;17.17;100.00
55077;BME280;40971;44.702;11.030;2022-09-17T03:39:19;99973.25;;;17.15;100.00
55077;BME280;40971;44.702;11.030;2022-09-17T03:41:45;99947.63;;;16.98;100.00
55077;BME280;40971;44.702;11.030;2022-09-17T03:44:10;99940.53;;;16.89;100.00
55077;BME280;40971;44.702;11.030;2022-09-17T03:46:36;99917.94;;;16.57;100.00
55077;BME280;40971;44.702;11.030;2022-09-17T03:49:01;99963.88;;;16.83;100.00
55077;BME280;40971;44.702;11.030;2022-09-17T03:51:27;99948.59;;;16.77;100.00
55077;BME280;40971;44.702;11.030;2022-09-17T03:53:52;99934.34;;;16.70;100.00
55077;BME280;40971;44.702;11.030;2022-09-17T03:56:18;99892.69;;;16.45;100.00
55077;BME280;40971;44.702;11.030;2022-09-17T03:58:43;99940.25;;;16.63;100.00
55077;BME280;40971;44.702;11.030;2022-09-17T04:01:09;99941.81;;;16.65;100.00
55077;BME280;40971;44.702;11.030;2022-09-17T04:03:35;99840.03;;;16.06;100.00
55077;BME280;40971;44.702;11.030;2022-09-17T04:06:01;99936.81;;;16.72;100.00
55077;BME280;40971;44.702;11.030;2022-09-17T04:08:26;99918.09;;;16.55;100.00
55077;BME280;40971;44.702;11.030;2022-09-17T04:10:52;99929.22;;;16.69;100.00
55077;BME280;40971;44.702;11.030;2022-09-17T04:13:17;99891.31;;;16.41;100.00
55077;BME280;40971;44.702;11.030;2022-09-17T04:15:44;99921.56;;;16.56;100.00
55077;BME280;40971;44.702;11.030;2022-09-17T04:18:10;99885.25;;;16.31;100.00
55077;BME280;40971;44.702;11.030;2022-09-17T04:20:36;99947.22;;;16.54;100.00
55077;BME280;40971;44.702;11.030;2022-09-17T04:23:01;99965.66;;;16.44;100.00
55077;BME280;40971;44.702;11.030;2022-09-17T04:25:27;99981.09;;;16.49;100.00
55077;BME280;40971;44.702;11.030;2022-09-17T04:27:52;99998.25;;;16.43;100.00
55077;BME280;40971;44.702;11.030;2022-09-17T04:30:18;100000.47;;;16.29;100.00
55077;BME280;40971;44.702;11.030;2022-09-17T04:32:44;100018.38;;;16.35;100.00
55077;BME280;40971;44.702;11.030;2022-09-17T04:35:10;100015.06;;;16.33;100.00
55077;BME280;40971;44.702;11.030;2022-09-17T04:37:36;100001.44;;;16.18;100.00
55077;BME280;40971;44.702;11.030;2022-09-17T04:40:03;100017.66;;;16.13;100.00
55077;BME280;40971;44.702;11.030;2022-09-17T04:42:28;99960.97;;;15.79;100.00
55077;BME280;40971;44.702;11.030;2022-09-17T04:44:54;100010.28;;;16.07;100.00
55077;BME280;40971;44.702;11.030;2022-09-17T04:47:19;99947.38;;;15.64;100.00
55077;BME280;40971;44.702;11.030;2022-09-17T04:49:45;99960.19;;;15.48;100.00
55077;BME280;40971;44.702;11.030;2022-09-17T04:52:10;99990.88;;;15.38;100.00
55077;BME280;40971;44.702;11.030;2022-09-17T04:54:36;100030.78;;;15.43;100.00
55077;BME280;40971;44.702;11.030;2022-09-17T04:57:01;100025.22;;;15.15;100.00
55077;BME280;40971;44.702;11.030;2022-09-17T04:59:27;100019.59;;;14.99;100.00
55077;BME280;40971;44.702;11.030;2022-09-17T05:01:52;100009.25;;;14.86;100.00
55077;BME280;40971;44.702;11.030;2022-09-17T05:04:18;100036.81;;;14.92;100.00
55077;BME280;40971;44.702;11.030;2022-09-17T05:06:43;100040.53;;;14.89;100.00
55077;BME280;40971;44.702;11.030;2022-09-17T05:09:09;100044.38;;;14.85;100.00
55077;BME280;40971;44.702;11.030;2022-09-17T05:11:34;100061.81;;;14.86;100.00
55077;BME280;40971;44.702;11.030;2022-09-17T05:14:00;100059.59;;;14.70;100.00
55077;BME280;40971;44.702;11.030;2022-09-17T05:16:25;100011.06;;;14.42;100.00
55077;BME280;40971;44.702;11.030;2022-09-17T05:18:51;100061.22;;;14.62;100.00
55077;BME280;40971;44.702;11.030;2022-09-17T05:21:17;99980.25;;;14.12;100.00
55077;BME280;40971;44.702;11.030;2022-09-17T05:23:43;100054.69;;;14.45;100.00
55077;BME280;40971;44.702;11.030;2022-09-17T05:26:08;100054.31;;;14.27;100.00
55077;BME280;40971;44.702;11.030;2022-09-17T05:28:34;100051.47;;;14.08;100.00
55077;BME280;40971;44.702;11.030;2022-09-17T05:31:00;100085.41;;;14.00;100.00
55077;BME280;40971;44.702;11.030;2022-09-17T05:33:26;100103.53;;;13.92;100.00
55077;BME280;40971;44.702;11.030;2022-09-17T05:35:51;100088.00;;;13.89;100.00
55077;BME280;40971;44.702;11.030;2022-09-17T05:38:17;100094.44;;;13.73;100.00
55077;BME280;40971;44.702;11.030;2022-09-17T05:40:44;100033.72;;;13.33;100.00
55077;BME280;40971;44.702;11.030;2022-09-17T05:43:09;100079.66;;;13.61;100.00
55077;BME280;40971;44.702;11.030;2022-09-17T05:45:36;100079.19;;;13.67;100.00
55077;BME280;40971;44.702;11.030;2022-09-17T05:48:04;100084.06;;;13.72;100.00
55077;BME280;40971;44.702;11.030;2022-09-17T05:50:31;100070.22;;;13.70;100.00
55077;BME280;40971;44.702;11.030;2022-09-17T05:53:06;100068.66;;;13.56;100.00
55077;BME280;40971;44.702;11.030;2022-09-17T05:55:32;100090.50;;;13.57;100.00
55077;BME280;40971;44.702;11.030;2022-09-17T05:57:59;100102.78;;;13.45;100.00
55077;BME280;40971;44.702;11.030;2022-09-17T06:00:25;100116.84;;;13.44;100.00
55077;BME280;40971;44.702;11.030;2022-09-17T06:02:54;100092.59;;;13.29;100.00
55077;BME280;40971;44.702;11.030;2022-09-17T06:05:20;100099.84;;;13.25;100.00
55077;BME280;40971;44.702;11.030;2022-09-17T06:07:46;100107.38;;;13.30;100.00
55077;BME280;40971;44.702;11.030;2022-09-17T06:10:11;100118.81;;;13.29;100.00
55077;BME280;40971;44.702;11.030;2022-09-17T06:12:37;100101.41;;;13.04;100.00
55077;BME280;40971;44.702;11.030;2022-09-17T06:15:03;100095.38;;;12.91;100.00
55077;BME280;40971;44.702;11.030;2022-09-17T06:17:32;100141.69;;;13.03;100.00
55077;BME280;40971;44.702;11.030;2022-09-17T06:19:58;100074.16;;;12.59;100.00
55077;BME280;40971;44.702;11.030;2022-09-17T06:22:23;100152.63;;;12.97;100.00
55077;BME280;40971;44.702;11.030;2022-09-17T06:24:49;100084.69;;;12.46;100.00
55077;BME280;40971;44.702;11.030;2022-09-17T06:27:14;100132.91;;;12.68;100.00
55077;BME280;40971;44.702;11.030;2022-09-17T06:29:40;100120.47;;;12.58;100.00
55077;BME280;40971;44.702;11.030;2022-09-17T06:32:07;100117.19;;;12.44;100.00
55077;BME280;40971;44.702;11.030;2022-09-17T06:34:35;100128.19;;;12.36;100.00
55077;BME280;40971;44.702;11.030;2022-09-17T06:37:00;100129.03;;;12.24;100.00
55077;BME280;40971;44.702;11.030;2022-09-17T06:39:26;100078.59;;;12.09;100.00
55077;BME280;40971;44.702;11.030;2022-09-17T06:41:51;100115.94;;;12.24;100.00
55077;BME280;40971;44.702;11.030;2022-09-17T06:44:16;100118.78;;;12.21;100.00
55077;BME280;40971;44.702;11.030;2022-09-17T06:46:42;100140.56;;;12.34;100.00
55077;BME280;40971;44.702;11.030;2022-09-17T06:49:08;100141.28;;;12.36;100.00
55077;BME280;40971;44.702;11.030;2022-09-17T06:51:34;100159.16;;;12.42;100.00
55077;BME280;40971;44.702;11.030;2022-09-17T06:54:00;100198.78;;;12.50;100.00
55077;BME280;40971;44.702;11.030;2022-09-17T06:56:25;100204.84;;;12.51;100.00
55077;BME280;40971;44.702;11.030;2022-09-17T06:58:51;100213.31;;;12.42;100.00
55077;BME280;40971;44.702;11.030;2022-09-17T07:01:18;100244.47;;;12.46;100.00
55077;BME280;40971;44.702;11.030;2022-09-17T07:03:43;100270.31;;;12.51;100.00
55077;BME280;40971;44.702;11.030;2022-09-17T07:06:09;100286.03;;;12.38;100.00
55077;BME280;40971;44.702;11.030;2022-09-17T07:08:35;100325.94;;;12.54;100.00
55077;BME280;40971;44.702;11.030;2022-09-17T07:11:01;100327.09;;;12.38;100.00
55077;BME280;40971;44.702;11.030;2022-09-17T07:13:27;100329.72;;;12.38;100.00
55077;BME280;40971;44.702;11.030;2022-09-17T07:15:58;100281.00;;;11.97;100.00
55077;BME280;40971;44.702;11.030;2022-09-17T07:18:24;100378.50;;;12.26;100.00
55077;BME280;40971;44.702;11.030;2022-09-17T07:21:00;100344.38;;;11.88;100.00
55077;BME280;40971;44.702;11.030;2022-09-17T07:23:30;100387.59;;;12.20;100.00
55077;BME280;40971;44.702;11.030;2022-09-17T07:25:58;100373.53;;;12.09;100.00
55077;BME280;40971;44.702;11.030;2022-09-17T07:28:25;100387.91;;;12.16;100.00
55077;BME280;40971;44.702;11.030;2022-09-17T07:30:51;100390.53;;;12.16;100.00
55077;BME280;40971;44.702;11.030;2022-09-17T07:33:19;100375.41;;;12.07;100.00
55077;BME280;40971;44.702;11.030;2022-09-17T07:35:58;100394.31;;;12.12;100.00
55077;BME280;40971;44.702;11.030;2022-09-17T07:38:26;100397.09;;;12.09;100.00
55077;BME280;40971;44.702;11.030;2022-09-17T07:40:57;100429.59;;;12.19;100.00
55077;BME280;40971;44.702;11.030;2022-09-17T07:43:27;100471.66;;;12.30;100.00
55077;BME280;40971;44.702;11.030;2022-09-17T07:45:53;100470.06;;;12.27;100.00
55077;BME280;40971;44.702;11.030;2022-09-17T07:48:19;100466.63;;;12.27;100.00
55077;BME280;40971;44.702;11.030;2022-09-17T07:50:45;100464.28;;;12.22;100.00
55077;BME280;40971;44.702;11.030;2022-09-17T07:53:11;100499.22;;;12.35;100.00
55077;BME280;40971;44.702;11.030;2022-09-17T07:55:37;100545.06;;;12.55;100.00
55077;BME280;40971;44.702;11.030;2022-09-17T07:58:03;100533.03;;;12.39;100.00
55077;BME280;40971;44.702;11.030;2022-09-17T08:00:28;100556.88;;;12.48;100.00
55077;BME280;40971;44.702;11.030;2022-09-17T08:02:54;100543.72;;;12.35;100.00
55077;BME280;40971;44.702;11.030;2022-09-17T08:05:21;100528.66;;;12.39;100.00
55077;BME280;40971;44.702;11.030;2022-09-17T08:07:53;100512.09;;;12.39;100.00
55077;BME280;40971;44.702;11.030;2022-09-17T08:10:20;100494.50;;;12.41;100.00
55077;BME280;40971;44.702;11.030;2022-09-17T08:12:54;100491.13;;;12.39;100.00
55077;BME280;40971;44.702;11.030;2022-09-17T08:15:20;100502.81;;;12.47;100.00
55077;BME280;40971;44.702;11.030;2022-09-17T08:17:46;100468.13;;;12.17;100.00
55077;BME280;40971;44.702;11.030;2022-09-17T08:20:13;100524.19;;;12.54;100.00
55077;BME280;40971;44.702;11.030;2022-09-17T08:22:39;100554.91;;;12.52;100.00
55077;BME280;40971;44.702;11.030;2022-09-17T08:25:06;100569.34;;;12.45;100.00
55077;BME280;40971;44.702;11.030;2022-09-17T08:27:32;100633.38;;;12.53;100.00
55077;BME280;40971;44.702;11.030;2022-09-17T08:29:58;100670.06;;;12.53;100.00
55077;BME280;40971;44.702;11.030;2022-09-17T08:32:24;100678.56;;;12.43;100.00
55077;BME280;40971;44.702;11.030;2022-09-17T08:34:50;100708.81;;;12.48;100.00
55077;BME280;40971;44.702;11.030;2022-09-17T08:37:15;100675.59;;;12.34;100.00
55077;BME280;40971;44.702;11.030;2022-09-17T08:39:41;100658.66;;;12.26;100.00
55077;BME280;40971;44.702;11.030;2022-09-17T08:43:07;100735.00;;;12.62;100.00
55077;BME280;40971;44.702;11.030;2022-09-17T08:45:29;100680.66;;;12.23;100.00
55077;BME280;40971;44.702;11.030;2022-09-17T08:48:01;100721.50;;;12.54;100.00
55077;BME280;40971;44.702;11.030;2022-09-17T09:06:23;100784.47;;;12.53;100.00
55077;BME280;40971;44.702;11.030;2022-09-17T09:09:01;100763.44;;;12.40;100.00
55077;BME280;40971;44.702;11.030;2022-09-17T09:11:30;100793.00;;;12.56;100.00
55077;BME280;40971;44.702;11.030;2022-09-17T09:14:20;100776.63;;;12.53;100.00
55077;BME280;40971;44.702;11.030;2022-09-17T09:16:48;100764.75;;;12.47;100.00
55077;BME280;40971;44.702;11.030;2022-09-17T09:19:29;100752.94;;;12.54;100.00
55077;BME280;40971;44.702;11.030;2022-09-17T09:30:17;100737.53;;;12.50;100.00
55077;BME280;40971;44.702;11.030;2022-09-17T09:35:25;100766.97;;;12.68;100.00
55077;BME280;40971;44.702;11.030;2022-09-17T09:40:35;100776.03;;;12.90;100.00
55077;BME280;40971;44.702;11.030;2022-09-17T09:43:16;100767.53;;;12.73;100.00
55077;BME280;40971;44.702;11.030;2022-09-17T09:48:49;100782.38;;;13.01;100.00
55077;BME280;40971;44.702;11.030;2022-09-17T09:57:04;100747.63;;;12.42;100.00
55077;BME280;40971;44.702;11.030;2022-09-17T09:59:32;100750.81;;;12.32;100.00
55077;BME280;40971;44.702;11.030;2022-09-17T10:02:00;100817.06;;;12.77;100.00
55077;BME280;40971;44.702;11.030;2022-09-17T10:04:27;100835.97;;;12.68;100.00
55077;BME280;40971;44.702;11.030;2022-09-17T10:07:13;100823.78;;;12.67;100.00
55077;BME280;40971;44.702;11.030;2022-09-17T10:09:44;100818.16;;;12.59;100.00
55077;BME280;40971;44.702;11.030;2022-09-17T10:14:37;100837.81;;;12.66;100.00
55077;BME280;40971;44.702;11.030;2022-09-17T10:17:35;100833.81;;;12.60;100.00
55077;BME280;40971;44.702;11.030;2022-09-17T10:22:34;100722.63;;;12.08;100.00
55077;BME280;40971;44.702;11.030;2022-09-17T10:25:02;100815.84;;;12.83;100.00
55077;BME280;40971;44.702;11.030;2022-09-17T10:27:30;100806.81;;;13.01;100.00
55077;BME280;40971;44.702;11.030;2022-09-17T10:30:14;100803.81;;;12.93;100.00
55077;BME280;40971;44.702;11.030;2022-09-17T10:32:40;100787.53;;;13.02;100.00
55077;BME280;40971;44.702;11.030;2022-09-17T10:37:43;100787.47;;;13.45;100.00
55077;BME280;40971;44.702;11.030;2022-09-17T10:42:49;100766.59;;;13.56;100.00
55077;BME280;40971;44.702;11.030;2022-09-17T10:45:28;100689.28;;;13.08;100.00
55077;BME280;40971;44.702;11.030;2022-09-17T10:47:56;100729.81;;;13.43;100.00
55077;BME280;40971;44.702;11.030;2022-09-17T10:50:26;100749.69;;;13.60;100.00
55077;BME280;40971;44.702;11.030;2022-09-17T10:53:05;100723.63;;;13.97;100.00
55077;BME280;40971;44.702;11.030;2022-09-17T10:55:48;100687.56;;;14.50;100.00
55077;BME280;40971;44.702;11.030;2022-09-17T11:03:48;100770.56;;;14.78;100.00
55077;BME280;40971;44.702;11.030;2022-09-17T11:09:13;100765.31;;;14.39;100.00
55077;BME280;40971;44.702;11.030;2022-09-17T11:20:27;100756.16;;;16.25;99.44
55077;BME280;40971;44.702;11.030;2022-09-17T11:26:01;100762.41;;;16.91;91.10
55077;BME280;40971;44.702;11.030;2022-09-17T11:42:09;100732.28;;;16.04;91.57
55077;BME280;40971;44.702;11.030;2022-09-17T11:44:48;100744.66;;;16.37;97.02
55077;BME280;40971;44.702;11.030;2022-09-17T11:47:21;100751.06;;;16.68;99.04
55077;BME280;40971;44.702;11.030;2022-09-17T11:49:54;100744.53;;;16.16;95.77
55077;BME280;40971;44.702;11.030;2022-09-17T11:52:25;100735.56;;;16.75;91.38
55077;BME280;40971;44.702;11.030;2022-09-17T11:55:23;100726.75;;;17.40;90.52
55077;BME280;40971;44.702;11.030;2022-09-17T11:57:58;100700.81;;;17.13;87.04
55077;BME280;40971;44.702;11.030;2022-09-17T12:00:27;100627.25;;;16.67;77.83
55077;BME280;40971;44.702;11.030;2022-09-17T12:02:58;100715.38;;;17.71;85.66
55077;BME280;40971;44.702;11.030;2022-09-17T12:05:33;100681.84;;;17.93;83.42
55077;BME280;40971;44.702;11.030;2022-09-17T12:08:14;100730.69;;;18.50;78.61
55077;BME280;40971;44.702;11.030;2022-09-17T12:16:32;100721.50;;;19.13;76.75
55077;BME280;40971;44.702;11.030;2022-09-17T12:21:56;100700.50;;;19.50;70.30
55077;BME280;40971;44.702;11.030;2022-09-17T12:24:26;100749.31;;;19.67;69.40
55077;BME280;40971;44.702;11.030;2022-09-17T12:40:32;100768.38;;;21.11;63.92
55077;BME280;40971;44.702;11.030;2022-09-17T12:59:17;100698.94;;;17.68;59.63
55077;BME280;40971;44.702;11.030;2022-09-17T13:18:24;100767.59;;;22.26;50.63
55077;BME280;40971;44.702;11.030;2022-09-17T13:21:13;100750.78;;;22.59;50.57
55077;BME280;40971;44.702;11.030;2022-09-17T13:23:45;100777.47;;;21.54;49.55
55077;BME280;40971;44.702;11.030;2022-09-17T13:26:15;100771.97;;;21.20;48.81
55077;BME280;40971;44.702;11.030;2022-09-17T13:28:48;100772.97;;;21.19;52.87
55077;BME280;40971;44.702;11.030;2022-09-17T13:33:59;100752.88;;;21.70;48.97
55077;BME280;40971;44.702;11.030;2022-09-17T13:44:38;100745.75;;;20.89;47.54
55077;BME280;40971;44.702;11.030;2022-09-17T13:47:26;100723.75;;;20.42;49.24
55077;BME280;40971;44.702;11.030;2022-09-17T13:49:58;100747.69;;;20.60;47.91
55077;BME280;40971;44.702;11.030;2022-09-17T13:52:52;100755.41;;;20.81;47.79
55077;BME280;40971;44.702;11.030;2022-09-17T13:55:38;100764.00;;;21.20;53.18
55077;BME280;40971;44.702;11.030;2022-09-17T13:58:33;100760.69;;;20.90;52.19
55077;BME280;40971;44.702;11.030;2022-09-17T14:21:56;100760.31;;;20.01;64.22
55077;BME280;40971;44.702;11.030;2022-09-17T14:32:45;100757.91;;;19.31;62.52
55077;BME280;40971;44.702;11.030;2022-09-17T14:35:48;100762.91;;;19.14;62.37
55077;BME280;40971;44.702;11.030;2022-09-17T14:38:26;100733.09;;;19.41;65.38
55077;BME280;40971;44.702;11.030;2022-09-17T14:41:06;100762.66;;;19.27;62.89
55077;BME280;40971;44.702;11.030;2022-09-17T14:44:02;100771.75;;;19.53;62.88
55077;BME280;40971;44.702;11.030;2022-09-17T14:46:42;100759.19;;;19.94;61.38
55077;BME280;40971;44.702;11.030;2022-09-17T14:49:23;100722.66;;;19.20;57.64
55077;BME280;40971;44.702;11.030;2022-09-17T14:51:50;100768.91;;;19.26;63.01
55077;BME280;40971;44.702;11.030;2022-09-17T14:54:25;100764.91;;;19.32;60.93
55077;BME280;40971;44.702;11.030;2022-09-17T14:56:52;100737.16;;;19.16;58.85
55077;BME280;40971;44.702;11.030;2022-09-17T14:59:48;100775.75;;;19.48;55.76
55077;BME280;40971;44.702;11.030;2022-09-17T15:04:54;100776.78;;;18.97;61.03
55077;BME280;40971;44.702;11.030;2022-09-17T15:07:21;100782.03;;;19.18;60.93
55077;BME280;40971;44.702;11.030;2022-09-17T15:09:46;100776.41;;;19.11;60.82
55077;BME280;40971;44.702;11.030;2022-09-17T15:12:15;100765.69;;;19.13;57.91
55077;BME280;40971;44.702;11.030;2022-09-17T15:14:42;100785.38;;;19.39;56.24
55077;BME280;40971;44.702;11.030;2022-09-17T15:17:15;100771.31;;;19.48;55.28
55077;BME280;40971;44.702;11.030;2022-09-17T15:19:48;100774.56;;;18.83;58.31
55077;BME280;40971;44.702;11.030;2022-09-17T15:22:37;100785.97;;;18.83;59.17
55077;BME280;40971;44.702;11.030;2022-09-17T15:27:40;100803.19;;;19.18;56.54
55077;BME280;40971;44.702;11.030;2022-09-17T15:30:14;100800.84;;;19.24;56.56
55077;BME280;40971;44.702;11.030;2022-09-17T15:32:47;100796.47;;;19.14;61.20
55077;BME280;40971;44.702;11.030;2022-09-17T15:40:36;100775.28;;;18.64;62.81
55077;BME280;40971;44.702;11.030;2022-09-17T15:43:05;100794.03;;;18.61;60.97
55077;BME280;40971;44.702;11.030;2022-09-17T15:45:38;100786.28;;;18.39;61.13
55077;BME280;40971;44.702;11.030;2022-09-17T15:48:21;100772.41;;;18.16;61.56
55077;BME280;40971;44.702;11.030;2022-09-17T15:50:55;100779.41;;;18.06;63.12
55077;BME280;40971;44.702;11.030;2022-09-17T15:53:30;100746.09;;;17.72;62.75
55077;BME280;40971;44.702;11.030;2022-09-17T16:08:57;100785.06;;;17.80;63.68
55077;BME280;40971;44.702;11.030;2022-09-17T16:11:25;100800.22;;;17.78;63.58
55077;BME280;40971;44.702;11.030;2022-09-17T16:13:52;100795.91;;;17.77;60.76
55077;BME280;40971;44.702;11.030;2022-09-17T16:16:30;100800.34;;;17.77;61.62
55077;BME280;40971;44.702;11.030;2022-09-17T16:18:56;100779.47;;;17.73;60.10
55077;BME280;40971;44.702;11.030;2022-09-17T16:21:22;100801.94;;;17.68;61.64
55077;BME280;40971;44.702;11.030;2022-09-17T16:23:47;100758.16;;;17.54;61.46
55077;BME280;40971;44.702;11.030;2022-09-17T16:26:22;100805.72;;;17.86;63.69
55077;BME280;40971;44.702;11.030;2022-09-17T16:28:51;100806.72;;;17.74;64.12
55077;BME280;40971;44.702;11.030;2022-09-17T16:31:18;100802.50;;;17.83;62.57
55077;BME280;40971;44.702;11.030;2022-09-17T16:33:44;100793.91;;;17.69;59.74
55077;BME280;40971;44.702;11.030;2022-09-17T16:36:09;100801.09;;;17.67;60.97
55077;BME280;40971;44.702;11.030;2022-09-17T16:38:35;100800.66;;;17.51;61.89
55077;BME280;40971;44.702;11.030;2022-09-17T16:41:06;100810.00;;;17.55;62.96
55077;BME280;40971;44.702;11.030;2022-09-17T16:43:31;100770.97;;;17.27;64.96
55077;BME280;40971;44.702;11.030;2022-09-17T16:46:08;100812.53;;;17.45;65.81
55077;BME280;40971;44.702;11.030;2022-09-17T16:48:35;100799.53;;;17.33;63.65
55077;BME280;40971;44.702;11.030;2022-09-17T16:51:07;100811.19;;;17.19;64.80
55077;BME280;40971;44.702;11.030;2022-09-17T16:53:33;100817.16;;;17.21;65.67
55077;BME280;40971;44.702;11.030;2022-09-17T16:55:59;100787.94;;;16.91;68.51